Time;durP1;ratioP1;P1;durP2;ratioP2;P2;SDS_P1;SDS_P2;PMS_P1;PMS_P2;Temp;Humidity;BMP_temperature;BMP_pressure;BME280_temperature;BME280_humidity;BME280_pressure;Samples;Min_cycle;Max_cycle;Signal;HPM_P1;HPM_P2
2024/03/25 00:00:24;;;;;;;5.65;5.07;;;22.40;47.50;;;;;;10337902;28;20072;-55
2024/03/25 00:05:27;;;;;;;7.45;5.50;;;22.30;47.70;;;;;;10353406;28;20046;-54
2024/03/25 00:10:29;;;;;;;5.80;5.13;;;22.30;47.80;;;;;;10359358;28;20052;-56
2024/03/25 00:15:34;;;;;;;6.60;5.40;;;22.20;47.90;;;;;;10360518;28;20064;-56
2024/03/25 00:20:37;;;;;;;6.05;5.30;;;22.10;47.90;;;;;;10348884;28;20048;-58
2024/03/25 00:25:39;;;;;;;6.45;5.40;;;22.10;47.90;;;;;;10364365;28;20057;-58
2024/03/25 00:30:44;;;;;;;6.88;5.80;;;22.00;47.90;;;;;;10361050;28;20046;-55
2024/03/25 00:35:47;;;;;;;7.78;6.25;;;22.00;48.00;;;;;;10360184;28;20129;-58
2024/03/25 00:40:50;;;;;;;7.25;5.80;;;22.00;48.10;;;;;;10363293;28;20050;-59
2024/03/25 00:45:51;;;;;;;8.07;6.30;;;21.80;48.30;;;;;;10359343;28;20050;-56
2024/03/25 00:50:54;;;;;;;7.00;5.68;;;21.80;48.30;;;;;;10358782;28;20054;-57
2024/03/25 00:55:56;;;;;;;6.55;5.65;;;21.90;48.00;;;;;;10350736;28;20054;-54
2024/03/25 01:00:57;;;;;;;6.47;5.72;;;21.80;48.20;;;;;;10347582;28;20067;-57
2024/03/25 01:06:00;;;;;;;6.97;5.65;;;21.90;47.90;;;;;;10324880;28;20046;-59
2024/03/25 01:11:02;;;;;;;7.38;5.47;;;21.70;48.10;;;;;;10316324;28;20048;-56
2024/03/25 01:16:04;;;;;;;7.65;5.95;;;21.70;48.10;;;;;;10314067;28;20053;-57
2024/03/25 01:21:07;;;;;;;7.15;6.30;;;21.70;48.00;;;;;;10311354;28;20043;-56
2024/03/25 01:26:09;;;;;;;8.15;6.47;;;21.60;48.10;;;;;;10313635;28;20046;-59
2024/03/25 01:31:11;;;;;;;7.15;6.38;;;21.60;48.20;;;;;;10314145;28;20448;-58
2024/03/25 01:36:17;;;;;;;7.05;6.15;;;21.50;48.10;;;;;;10317463;28;20042;-57
2024/03/25 01:41:24;;;;;;;8.60;6.93;;;21.50;48.30;;;;;;10320464;28;20093;-57
2024/03/25 01:46:25;;;;;;;6.60;5.55;;;21.50;48.20;;;;;;10317470;28;20109;-57
2024/03/25 01:51:28;;;;;;;6.40;5.57;;;21.50;48.10;;;;;;10315153;28;20054;-58
2024/03/25 01:56:30;;;;;;;8.32;6.35;;;21.50;48.00;;;;;;10318390;28;20046;-60
2024/03/25 02:01:31;;;;;;;6.45;5.68;;;21.20;48.40;;;;;;10318529;28;20060;-59
2024/03/25 02:06:34;;;;;;;6.55;5.82;;;21.30;48.20;;;;;;10318985;28;20046;-57
2024/03/25 02:11:36;;;;;;;7.13;5.68;;;21.20;48.20;;;;;;10315978;28;20100;-60
2024/03/25 02:16:38;;;;;;;7.20;6.10;;;21.20;48.20;;;;;;10314235;28;20081;-59
2024/03/25 02:21:41;;;;;;;6.75;5.53;;;21.30;48.00;;;;;;10314439;28;20074;-57
2024/03/25 02:26:44;;;;;;;6.93;5.68;;;21.20;48.30;;;;;;10315234;28;20060;-57
2024/03/25 02:31:47;;;;;;;6.68;5.45;;;21.20;48.20;;;;;;10308706;28;20062;-57
2024/03/25 02:36:48;;;;;;;6.55;5.70;;;21.20;47.90;;;;;;10315862;28;20050;-59
2024/03/25 02:41:51;;;;;;;6.50;5.65;;;21.20;47.90;;;;;;10320527;28;20042;-58
2024/03/25 02:46:53;;;;;;;7.05;5.55;;;21.00;48.20;;;;;;10323737;28;20038;-58
2024/03/25 02:51:54;;;;;;;7.03;5.40;;;21.00;48.20;;;;;;10325736;28;20042;-59
2024/03/25 02:56:57;;;;;;;6.70;5.60;;;21.00;48.30;;;;;;10328216;28;20047;-57
2024/03/25 03:01:59;;;;;;;6.72;5.50;;;21.10;48.00;;;;;;10323909;28;20052;-60
2024/03/25 03:07:00;;;;;;;6.82;5.95;;;20.90;48.20;;;;;;10320065;28;20042;-57
2024/03/25 03:12:04;;;;;;;6.00;4.90;;;20.90;48.30;;;;;;10326904;28;20053;-61
2024/03/25 03:17:05;;;;;;;7.18;5.47;;;20.80;48.50;;;;;;10323922;28;20137;-59
2024/03/25 03:22:07;;;;;;;6.65;5.32;;;20.80;48.30;;;;;;10324647;28;20053;-58
2024/03/25 03:27:10;;;;;;;6.28;5.13;;;20.90;48.30;;;;;;10333823;28;20508;-60
2024/03/25 03:32:12;;;;;;;5.82;5.05;;;20.80;48.30;;;;;;10321236;28;20056;-60
2024/03/25 03:37:13;;;;;;;6.10;5.10;;;20.70;48.50;;;;;;10316735;28;20051;-59
2024/03/25 03:42:17;;;;;;;5.68;5.07;;;20.60;48.60;;;;;;10317722;28;20739;-57
2024/03/25 03:47:22;;;;;;;5.57;4.97;;;20.60;48.60;;;;;;10312385;28;20066;-56
2024/03/25 03:52:23;;;;;;;5.65;4.65;;;20.70;48.40;;;;;;10314718;28;20050;-57
2024/03/25 03:57:26;;;;;;;5.70;4.72;;;20.60;48.50;;;;;;10316340;28;20485;-58
2024/03/25 04:02:29;;;;;;;5.53;4.45;;;20.50;48.80;;;;;;10318428;28;20501;-57
2024/03/25 04:07:30;;;;;;;6.25;5.32;;;20.40;49.20;;;;;;10325209;28;20051;-59
2024/03/25 04:12:33;;;;;;;6.40;5.45;;;21.00;48.30;;;;;;10322378;28;20050;-58
2024/03/25 04:17:35;;;;;;;6.00;5.40;;;21.20;47.70;;;;;;10317674;28;20481;-57
2024/03/25 04:22:37;;;;;;;7.13;6.05;;;21.30;47.80;;;;;;10313870;28;20071;-59
2024/03/25 04:27:40;;;;;;;6.40;5.45;;;21.30;48.20;;;;;;10309274;28;20051;-60
2024/03/25 04:32:42;;;;;;;6.43;5.55;;;21.40;48.10;;;;;;10319087;28;20065;-58
